createdAt,value
2018-12-17T00:01:08.637Z,1.10
2018-12-17T00:03:36.407Z,1.20
2018-12-17T00:06:03.891Z,1.10
2018-12-17T00:08:32.100Z,1.20
2018-12-17T00:11:00.136Z,1.20
2018-12-17T00:13:27.738Z,1.10
2018-12-17T00:15:55.841Z,1.20
2018-12-17T00:18:23.529Z,1.30
2018-12-17T00:20:50.988Z,1.30
2018-12-17T00:23:18.465Z,1.00
2018-12-17T00:25:45.960Z,1.10
2018-12-17T00:28:13.917Z,1.20
2018-12-17T00:30:41.347Z,1.20
2018-12-17T00:33:08.920Z,1.30
2018-12-17T00:35:36.380Z,1.30
2018-12-17T00:38:04.148Z,1.40
2018-12-17T00:40:31.807Z,1.40
2018-12-17T00:42:59.259Z,1.40
2018-12-17T00:45:26.697Z,1.40
2018-12-17T00:47:54.275Z,1.40
2018-12-17T00:50:21.732Z,1.40
2018-12-17T00:52:49.440Z,1.40
2018-12-17T00:55:16.904Z,1.40
2018-12-17T00:57:44.413Z,1.20
2018-12-17T01:00:12.262Z,1.30
2018-12-17T01:02:39.857Z,1.40
2018-12-17T01:05:07.396Z,1.40
2018-12-17T01:07:35.185Z,1.30
2018-12-17T01:10:03.559Z,1.40
2018-12-17T01:12:31.947Z,1.40
2018-12-17T01:14:59.961Z,1.40
2018-12-17T01:17:27.394Z,1.40
2018-12-17T01:19:54.887Z,1.30
2018-12-17T01:22:22.336Z,1.40
2018-12-17T01:24:49.812Z,1.40
2018-12-17T01:27:17.271Z,1.30
2018-12-17T01:29:45.023Z,1.30
2018-12-17T01:32:12.478Z,1.30
2018-12-17T01:34:39.928Z,1.40
2018-12-17T01:37:07.459Z,1.30
2018-12-17T01:39:34.932Z,1.30
2018-12-17T01:42:02.392Z,1.30
2018-12-17T01:44:29.891Z,1.30
2018-12-17T01:46:57.524Z,1.30
2018-12-17T01:49:24.982Z,1.30
2018-12-17T01:51:52.445Z,1.40
2018-12-17T01:54:20.203Z,1.40
2018-12-17T01:56:47.676Z,1.30
2018-12-17T01:59:15.720Z,1.20
2018-12-17T02:01:43.179Z,1.20
2018-12-17T02:04:10.645Z,1.10
2018-12-17T02:06:38.102Z,1.20
2018-12-17T02:09:06.260Z,1.20
2018-12-17T02:11:33.804Z,1.30
2018-12-17T02:14:01.249Z,1.30
2018-12-17T02:16:28.843Z,1.30
2018-12-17T02:18:56.299Z,1.40
2018-12-17T02:21:24.102Z,1.40
2018-12-17T02:23:51.671Z,1.40
2018-12-17T02:26:19.219Z,1.40
2018-12-17T02:28:46.685Z,1.30
2018-12-17T02:31:14.203Z,1.40
2018-12-17T02:33:41.678Z,1.40
2018-12-17T02:36:09.598Z,1.40
2018-12-17T02:38:37.183Z,1.40
2018-12-17T02:41:04.663Z,1.40
2018-12-17T02:43:32.432Z,1.40
2018-12-17T02:46:00.486Z,1.40
2018-12-17T02:48:28.249Z,1.40
2018-12-17T02:50:55.712Z,1.40
2018-12-17T02:53:23.331Z,1.40
2018-12-17T02:55:50.838Z,1.30
2018-12-17T02:58:18.283Z,1.30
2018-12-17T03:00:45.746Z,1.20
2018-12-17T03:03:13.199Z,1.30
2018-12-17T03:05:40.655Z,1.30
2018-12-17T03:08:08.208Z,1.40
2018-12-17T03:10:35.673Z,1.40
2018-12-17T03:13:03.335Z,1.40
2018-12-17T03:15:30.791Z,1.40
2018-12-17T03:17:58.251Z,1.40
2018-12-17T03:20:25.711Z,1.40
2018-12-17T03:22:53.158Z,1.40
2018-12-17T03:25:20.622Z,1.40
2018-12-17T03:27:48.160Z,1.30
2018-12-17T03:30:15.828Z,1.30
2018-12-17T03:32:43.327Z,1.30
2018-12-17T03:35:10.913Z,1.40
2018-12-17T03:37:38.599Z,1.40
2018-12-17T03:40:06.163Z,1.40
2018-12-17T03:42:33.636Z,1.40
2018-12-17T03:45:01.883Z,1.40
2018-12-17T03:47:29.413Z,1.40
2018-12-17T03:49:56.892Z,1.40
2018-12-17T03:52:24.376Z,1.40
2018-12-17T03:54:52.191Z,1.40
2018-12-17T03:57:19.820Z,1.50
2018-12-17T03:59:47.249Z,1.50
2018-12-17T04:02:14.713Z,1.40
2018-12-17T04:04:42.485Z,1.50
2018-12-17T04:07:10.019Z,1.40
2018-12-17T04:09:37.460Z,1.40
2018-12-17T04:12:05.139Z,1.40
2018-12-17T04:14:33.644Z,1.40
2018-12-17T04:17:01.069Z,1.40
2018-12-17T04:19:28.583Z,1.40
2018-12-17T04:21:56.135Z,1.50
2018-12-17T04:24:23.588Z,1.50
2018-12-17T04:26:51.031Z,1.50
2018-12-17T04:29:18.478Z,1.50
2018-12-17T04:31:46.011Z,1.60
2018-12-17T04:34:13.783Z,1.40
2018-12-17T04:36:41.926Z,1.50
2018-12-17T04:39:09.477Z,1.50
2018-12-17T04:41:37.064Z,1.50
2018-12-17T04:44:04.831Z,1.60
2018-12-17T04:46:32.292Z,1.60
2018-12-17T04:48:59.775Z,1.60
2018-12-17T04:51:27.551Z,1.60
2018-12-17T04:53:55.607Z,1.60
2018-12-17T04:56:23.204Z,1.60
2018-12-17T04:58:50.681Z,1.50
2018-12-17T05:01:18.229Z,1.40
2018-12-17T05:03:45.679Z,1.40
2018-12-17T05:06:13.171Z,1.40
2018-12-17T05:08:40.628Z,1.40
2018-12-17T05:11:08.088Z,1.40
2018-12-17T05:13:35.547Z,1.40
2018-12-17T05:16:03.004Z,1.50
2018-12-17T05:18:30.466Z,1.50
2018-12-17T05:20:57.906Z,1.50
2018-12-17T05:23:25.669Z,1.50
2018-12-17T05:25:53.296Z,1.60
2018-12-17T05:28:21.213Z,1.50
2018-12-17T05:30:48.961Z,1.50
2018-12-17T05:33:16.839Z,1.50
2018-12-17T05:35:44.699Z,1.60
2018-12-17T05:38:12.273Z,1.60
2018-12-17T05:40:39.924Z,1.60
2018-12-17T05:43:07.730Z,1.60
2018-12-17T05:45:35.271Z,1.60
2018-12-17T05:48:03.172Z,1.60
2018-12-17T05:50:30.724Z,1.50
2018-12-17T05:52:58.233Z,1.50
2018-12-17T05:55:25.677Z,1.40
2018-12-17T05:57:53.440Z,1.50
2018-12-17T06:00:22.848Z,1.60
2018-12-17T06:02:50.383Z,1.60
2018-12-17T06:05:18.062Z,1.60
2018-12-17T06:07:45.728Z,1.70
2018-12-17T06:10:13.491Z,1.50
2018-12-17T06:12:40.943Z,1.50
2018-12-17T06:15:10.484Z,1.60
2018-12-17T06:17:38.014Z,1.60
2018-12-17T06:20:06.511Z,1.60
2018-12-17T06:22:34.002Z,1.50
2018-12-17T06:25:01.623Z,1.60
2018-12-17T06:27:36.718Z,1.60
2018-12-17T06:30:00.433Z,1.60
2018-12-17T06:32:27.979Z,1.60
2018-12-17T06:34:55.453Z,1.60
2018-12-17T06:37:22.881Z,1.60
2018-12-17T06:39:50.352Z,1.70
2018-12-17T06:42:18.150Z,1.60
2018-12-17T06:44:45.870Z,1.60
2018-12-17T06:47:13.327Z,1.60
2018-12-17T06:49:41.475Z,1.60
2018-12-17T06:52:09.063Z,1.60
2018-12-17T06:54:36.719Z,1.70
2018-12-17T06:57:04.380Z,1.80
2018-12-17T06:59:31.843Z,2.00
2018-12-17T07:01:59.685Z,2.10
2018-12-17T07:04:27.271Z,2.20
2018-12-17T07:06:54.842Z,2.20
2018-12-17T07:09:22.514Z,2.20
2018-12-17T07:11:50.029Z,2.20
2018-12-17T07:14:17.481Z,2.20
2018-12-17T07:16:45.016Z,2.30
2018-12-17T07:19:12.740Z,2.80
2018-12-17T07:21:40.891Z,2.50
2018-12-17T07:24:08.428Z,2.30
2018-12-17T07:26:35.995Z,2.20
2018-12-17T07:29:03.497Z,2.10
2018-12-17T07:31:31.270Z,2.00
2018-12-17T07:33:59.138Z,1.90
2018-12-17T07:36:26.695Z,1.90
2018-12-17T07:38:54.226Z,1.90
2018-12-17T07:41:21.736Z,1.90
2018-12-17T07:43:49.243Z,1.80
2018-12-17T07:46:16.899Z,1.80
2018-12-17T07:48:44.369Z,1.70
2018-12-17T07:51:12.130Z,1.70
2018-12-17T07:53:39.852Z,1.80
2018-12-17T07:56:07.356Z,1.90
2018-12-17T07:58:34.786Z,2.00
2018-12-17T08:01:02.570Z,1.90
2018-12-17T08:03:30.049Z,2.00
2018-12-17T08:05:57.804Z,2.00
2018-12-17T08:08:25.944Z,2.00
2018-12-17T08:10:53.530Z,2.00
2018-12-17T08:13:21.538Z,2.00
2018-12-17T08:15:48.967Z,2.10
2018-12-17T08:18:23.168Z,2.10
2018-12-17T08:20:51.342Z,2.10
2018-12-17T08:23:18.863Z,2.20
2018-12-17T08:25:46.351Z,2.10
2018-12-17T08:28:13.894Z,2.10
2018-12-17T08:30:41.621Z,2.20
2018-12-17T08:33:09.395Z,2.20
2018-12-17T08:35:37.290Z,2.20
2018-12-17T08:38:04.782Z,2.20
2018-12-17T08:40:32.345Z,2.20
2018-12-17T08:43:00.400Z,2.20
2018-12-17T08:45:27.899Z,2.20
2018-12-17T08:47:55.411Z,2.20
2018-12-17T08:50:23.033Z,2.20
2018-12-17T08:52:50.544Z,2.20
2018-12-17T08:55:18.295Z,2.20
2018-12-17T08:57:45.821Z,2.20
2018-12-17T09:00:13.820Z,2.20
2018-12-17T09:02:41.755Z,2.20
2018-12-17T09:05:09.323Z,2.30
2018-12-17T09:07:36.943Z,2.30
2018-12-17T09:10:05.826Z,2.20
2018-12-17T09:12:33.523Z,2.20
2018-12-17T09:15:01.023Z,2.20
2018-12-17T09:17:28.779Z,2.30
2018-12-17T09:19:56.532Z,2.30
2018-12-17T09:22:24.060Z,2.20
2018-12-17T09:24:51.531Z,2.30
2018-12-17T09:27:19.255Z,2.30
2018-12-17T09:29:46.730Z,2.40
2018-12-17T09:32:14.316Z,2.40
2018-12-17T09:34:41.891Z,2.30
2018-12-17T09:37:09.543Z,2.30
2018-12-17T09:39:37.114Z,2.40
2018-12-17T09:42:05.027Z,2.40
2018-12-17T09:44:32.675Z,2.50
2018-12-17T09:47:00.270Z,2.50
2018-12-17T09:49:27.798Z,2.60
2018-12-17T09:51:55.350Z,2.60
2018-12-17T09:54:23.017Z,2.60
2018-12-17T09:56:50.562Z,2.70
2018-12-17T09:59:18.004Z,2.70
2018-12-17T10:01:47.434Z,2.70
2018-12-17T10:04:14.899Z,2.70
2018-12-17T10:06:42.540Z,2.70
2018-12-17T10:09:10.110Z,2.70
2018-12-17T10:11:37.578Z,2.70
2018-12-17T10:14:05.079Z,2.60
2018-12-17T10:16:32.556Z,2.70
2018-12-17T10:19:00.095Z,2.70
2018-12-17T10:21:27.689Z,2.80
2018-12-17T10:23:55.465Z,2.80
2018-12-17T10:26:23.172Z,2.90
2018-12-17T10:28:50.847Z,2.90
2018-12-17T10:31:18.368Z,2.90
2018-12-17T10:33:45.855Z,2.90
2018-12-17T10:36:13.363Z,2.90
2018-12-17T10:38:41.580Z,2.90
2018-12-17T10:41:09.020Z,2.90
2018-12-17T10:43:36.492Z,2.90
2018-12-17T10:46:03.948Z,2.90
2018-12-17T10:48:31.708Z,2.90
2018-12-17T10:50:59.506Z,2.90
2018-12-17T10:53:27.229Z,2.90
2018-12-17T10:55:54.728Z,3.00
2018-12-17T10:58:22.155Z,3.00
2018-12-17T11:00:55.121Z,3.00
2018-12-17T11:03:24.539Z,3.00
2018-12-17T11:05:53.552Z,2.90
2018-12-17T11:08:21.192Z,2.90
2018-12-17T11:10:48.671Z,2.90
2018-12-17T11:13:16.575Z,3.00
2018-12-17T11:15:44.165Z,2.90
2018-12-17T11:18:11.635Z,2.90
2018-12-17T11:20:39.100Z,2.90
2018-12-17T11:23:06.719Z,3.00
2018-12-17T11:25:34.247Z,3.00
2018-12-17T11:28:01.757Z,3.00
2018-12-17T11:30:29.541Z,3.10
2018-12-17T11:32:57.003Z,3.10
2018-12-17T11:35:24.752Z,3.10
2018-12-17T11:37:52.193Z,3.20
2018-12-17T11:40:19.727Z,3.20
2018-12-17T11:42:47.175Z,3.20
2018-12-17T11:45:14.880Z,3.20
2018-12-17T11:47:42.327Z,3.20
2018-12-17T11:50:10.124Z,3.10
2018-12-17T11:52:37.880Z,3.20
2018-12-17T11:55:05.339Z,3.10
2018-12-17T11:57:45.231Z,3.30
2018-12-17T12:00:12.720Z,3.20
2018-12-17T12:02:40.167Z,3.30
2018-12-17T12:05:07.747Z,3.20
2018-12-17T12:07:35.203Z,3.30
2018-12-17T12:10:03.351Z,3.30
2018-12-17T12:12:31.059Z,3.40
2018-12-17T12:14:58.735Z,3.40
2018-12-17T12:17:26.196Z,3.40
2018-12-17T12:19:53.701Z,3.40
2018-12-17T12:22:21.292Z,3.50
2018-12-17T12:24:48.953Z,3.60
2018-12-17T12:27:16.408Z,3.60
2018-12-17T12:29:44.213Z,3.60
2018-12-17T12:32:11.699Z,3.70
2018-12-17T12:34:39.263Z,3.70
2018-12-17T12:37:06.732Z,3.60
2018-12-17T12:39:34.173Z,3.60
2018-12-17T12:42:01.626Z,3.60
2018-12-17T12:44:29.074Z,3.60
2018-12-17T12:46:56.513Z,3.60
2018-12-17T12:49:24.277Z,3.60
2018-12-17T12:51:52.732Z,3.60
2018-12-17T12:54:20.569Z,3.70
2018-12-17T12:56:48.086Z,3.70
2018-12-17T12:59:15.735Z,3.70
2018-12-17T13:01:43.171Z,3.70
2018-12-17T13:04:10.652Z,3.70
2018-12-17T13:06:38.310Z,3.80
2018-12-17T13:09:07.147Z,3.70
2018-12-17T13:11:34.783Z,3.60
2018-12-17T13:14:02.272Z,3.60
2018-12-17T13:16:29.729Z,3.60
2018-12-17T13:18:57.175Z,3.50
2018-12-17T13:21:24.660Z,3.50
2018-12-17T13:23:52.178Z,3.70
2018-12-17T13:26:19.625Z,3.70
2018-12-17T13:28:47.084Z,3.70
2018-12-17T13:31:14.913Z,3.70
2018-12-17T13:33:42.580Z,3.70
2018-12-17T13:36:10.088Z,3.60
2018-12-17T13:38:37.842Z,3.70
2018-12-17T13:41:05.612Z,3.70
2018-12-17T13:43:33.228Z,3.70
2018-12-17T13:46:00.819Z,3.80
2018-12-17T13:48:28.579Z,3.80
2018-12-17T13:50:57.928Z,3.90
2018-12-17T13:53:31.284Z,3.90
2018-12-17T13:55:58.847Z,3.90
2018-12-17T13:58:26.472Z,3.80
2018-12-17T14:00:54.164Z,3.80
2018-12-17T14:03:21.615Z,3.80
2018-12-17T14:05:49.244Z,3.80
2018-12-17T14:08:16.839Z,3.70
2018-12-17T14:10:50.979Z,3.80
2018-12-17T14:13:22.191Z,3.70
2018-12-17T14:15:52.147Z,3.70
2018-12-17T14:18:26.111Z,3.80
2018-12-17T14:20:59.196Z,3.90
2018-12-17T14:23:26.878Z,3.80
2018-12-17T14:25:54.420Z,3.80
2018-12-17T14:28:22.159Z,3.80
2018-12-17T14:30:49.746Z,3.80
2018-12-17T14:33:17.216Z,3.80
2018-12-17T14:35:50.366Z,3.80
2018-12-17T14:38:17.840Z,3.80
2018-12-17T14:40:45.419Z,3.80
2018-12-17T14:43:13.180Z,3.90
2018-12-17T14:45:40.635Z,3.90
2018-12-17T14:48:08.387Z,3.90
2018-12-17T14:50:35.843Z,3.80
2018-12-17T14:53:03.625Z,3.80
2018-12-17T14:55:31.105Z,3.80
2018-12-17T14:57:58.839Z,3.90
2018-12-17T15:00:26.310Z,3.90
2018-12-17T15:02:54.082Z,3.90
2018-12-17T15:05:21.628Z,3.90
2018-12-17T15:07:49.209Z,3.80
2018-12-17T15:10:16.732Z,3.70
2018-12-17T15:12:44.190Z,3.80
2018-12-17T15:15:11.948Z,3.80
2018-12-17T15:17:39.412Z,3.80
2018-12-17T15:20:09.398Z,3.80
2018-12-17T15:22:37.000Z,3.80
2018-12-17T15:25:07.633Z,3.80
2018-12-17T15:27:35.174Z,3.90
2018-12-17T15:30:02.724Z,3.90
2018-12-17T15:32:30.271Z,3.90
2018-12-17T15:34:57.723Z,3.90
2018-12-17T15:37:25.213Z,3.80
2018-12-17T15:39:52.680Z,3.80
2018-12-17T15:42:21.908Z,3.90
2018-12-17T15:44:49.745Z,3.90
2018-12-17T15:47:17.358Z,3.90
2018-12-17T15:49:44.833Z,3.70
2018-12-17T15:52:12.284Z,3.70
2018-12-17T15:54:39.744Z,3.80
2018-12-17T15:57:07.317Z,3.80
2018-12-17T15:59:35.199Z,3.90
2018-12-17T16:02:02.842Z,4.00
2018-12-17T16:04:30.308Z,4.00
2018-12-17T16:06:57.990Z,4.00
2018-12-17T16:09:25.528Z,3.80
2018-12-17T16:11:53.192Z,3.90
2018-12-17T16:14:20.643Z,3.90
2018-12-17T16:16:48.097Z,3.90
2018-12-17T16:19:15.649Z,3.90
2018-12-17T16:21:43.104Z,3.80
2018-12-17T16:24:10.871Z,3.90
2018-12-17T16:26:38.332Z,3.90
2018-12-17T16:29:06.082Z,3.90
2018-12-17T16:31:33.573Z,3.90
2018-12-17T16:34:01.308Z,4.00
2018-12-17T16:36:29.077Z,3.90
2018-12-17T16:38:56.519Z,3.90
2018-12-17T16:41:23.977Z,3.90
2018-12-17T16:43:51.423Z,3.90
2018-12-17T16:46:19.209Z,3.90
2018-12-17T16:48:46.691Z,3.90
2018-12-17T16:51:14.454Z,3.90
2018-12-17T16:53:42.200Z,3.80
2018-12-17T16:56:09.801Z,3.90
2018-12-17T16:58:37.403Z,3.80
2018-12-17T17:01:04.876Z,3.90
2018-12-17T17:03:32.542Z,3.90
2018-12-17T17:06:00.019Z,3.90
2018-12-17T17:08:27.459Z,3.90
2018-12-17T17:10:54.903Z,3.80
2018-12-17T17:13:22.515Z,3.80
2018-12-17T17:15:49.972Z,3.70
2018-12-17T17:18:17.680Z,3.80
2018-12-17T17:20:45.142Z,3.80
2018-12-17T17:23:12.904Z,3.80
2018-12-17T17:25:40.436Z,3.70
2018-12-17T17:28:07.893Z,3.80
2018-12-17T17:30:35.596Z,3.70
2018-12-17T17:33:03.065Z,3.80
2018-12-17T17:35:30.995Z,3.70
2018-12-17T17:37:58.501Z,3.70
2018-12-17T17:40:25.981Z,3.80
2018-12-17T17:42:53.441Z,3.80
2018-12-17T17:45:20.900Z,3.80
2018-12-17T17:47:48.362Z,3.80
2018-12-17T17:50:15.849Z,3.80
2018-12-17T17:52:43.311Z,3.70
2018-12-17T17:55:11.680Z,3.40
2018-12-17T17:57:39.144Z,3.80
2018-12-17T18:00:09.216Z,3.90
2018-12-17T18:02:36.684Z,3.90
2018-12-17T18:05:05.543Z,3.80
2018-12-17T18:07:33.127Z,3.80
2018-12-17T18:10:00.567Z,3.80
2018-12-17T18:12:28.043Z,3.80
2018-12-17T18:14:55.529Z,3.80
2018-12-17T18:17:23.103Z,3.80
2018-12-17T18:19:50.572Z,3.80
2018-12-17T18:22:18.667Z,3.80
2018-12-17T18:24:46.996Z,3.80
2018-12-17T18:27:14.536Z,3.90
2018-12-17T18:29:42.076Z,3.90
2018-12-17T18:32:09.666Z,3.90
2018-12-17T18:34:37.440Z,3.90
2018-12-17T18:37:04.915Z,3.80
2018-12-17T18:39:32.558Z,3.90
2018-12-17T18:42:00.099Z,3.90
2018-12-17T18:44:27.557Z,4.00
2018-12-17T18:46:56.551Z,4.00
2018-12-17T18:49:24.052Z,4.00
2018-12-17T18:51:51.507Z,3.90
2018-12-17T18:54:19.230Z,3.90
2018-12-17T18:56:46.995Z,3.90
2018-12-17T18:59:14.472Z,4.00
2018-12-17T19:01:42.147Z,4.10
2018-12-17T19:04:09.682Z,4.00
2018-12-17T19:06:37.440Z,4.00
2018-12-17T19:09:06.212Z,3.90
2018-12-17T19:11:33.873Z,3.90
2018-12-17T19:14:01.319Z,4.20
2018-12-17T19:16:28.762Z,4.40
2018-12-17T19:18:56.236Z,4.20
2018-12-17T19:21:24.395Z,4.20
2018-12-17T19:23:52.019Z,4.20
2018-12-17T19:26:19.538Z,4.10
2018-12-17T19:28:47.019Z,4.10
2018-12-17T19:31:14.937Z,4.20
2018-12-17T19:33:42.372Z,4.20
2018-12-17T19:36:09.836Z,4.10
2018-12-17T19:38:37.373Z,4.10
2018-12-17T19:41:04.934Z,4.10
2018-12-17T19:43:32.387Z,4.10
2018-12-17T19:45:59.824Z,4.10
2018-12-17T19:48:27.279Z,4.10
2018-12-17T19:50:54.730Z,4.10
2018-12-17T19:53:22.188Z,4.10
2018-12-17T19:55:49.656Z,4.20
2018-12-17T19:58:17.100Z,4.10
2018-12-17T20:00:44.591Z,4.00
2018-12-17T20:03:12.354Z,4.00
2018-12-17T20:05:40.087Z,3.90
2018-12-17T20:08:07.531Z,4.00
2018-12-17T20:10:35.161Z,4.00
2018-12-17T20:13:02.725Z,4.00
2018-12-17T20:15:30.459Z,4.00
2018-12-17T20:17:57.903Z,4.00
2018-12-17T20:20:25.384Z,4.10
2018-12-17T20:22:52.848Z,4.10
2018-12-17T20:25:20.344Z,4.00
2018-12-17T20:27:48.101Z,4.00
2018-12-17T20:30:15.567Z,4.00
2018-12-17T20:32:43.329Z,4.00
2018-12-17T20:35:10.879Z,4.10
2018-12-17T20:37:38.545Z,4.00
2018-12-17T20:40:07.015Z,4.10
2018-12-17T20:42:34.660Z,4.10
2018-12-17T20:45:02.110Z,4.10
2018-12-17T20:47:29.571Z,4.10
2018-12-17T20:49:57.038Z,4.10
2018-12-17T20:52:25.920Z,4.10
2018-12-17T20:54:53.664Z,4.10
2018-12-17T20:57:21.275Z,4.10
2018-12-17T20:59:48.727Z,4.10
2018-12-17T21:02:16.435Z,4.20
2018-12-17T21:04:43.948Z,4.20
2018-12-17T21:07:11.417Z,4.30
2018-12-17T21:09:39.167Z,4.30
2018-12-17T21:12:07.271Z,4.20
2018-12-17T21:14:35.079Z,4.30
2018-12-17T21:17:03.685Z,4.20
2018-12-17T21:19:31.315Z,4.30
2018-12-17T21:21:58.907Z,4.30
2018-12-17T21:24:26.351Z,4.20
2018-12-17T21:26:53.793Z,4.30
2018-12-17T21:29:21.284Z,4.30
2018-12-17T21:31:49.420Z,4.30
2018-12-17T21:34:16.899Z,4.40
2018-12-17T21:36:44.594Z,4.40
2018-12-17T21:39:12.065Z,4.40
2018-12-17T21:41:40.371Z,4.40
2018-12-17T21:44:07.869Z,4.40
2018-12-17T21:46:35.533Z,4.40
2018-12-17T21:49:03.075Z,4.40
2018-12-17T21:51:30.540Z,4.40
2018-12-17T21:53:57.983Z,4.40
2018-12-17T21:56:25.448Z,4.40
2018-12-17T21:58:52.916Z,4.40
2018-12-17T22:01:21.852Z,4.40
2018-12-17T22:03:49.300Z,4.40
2018-12-17T22:06:16.808Z,4.50
2018-12-17T22:08:44.291Z,4.50
2018-12-17T22:11:12.022Z,4.40
2018-12-17T22:13:39.491Z,4.50
2018-12-17T22:16:06.956Z,4.50
2018-12-17T22:18:34.713Z,4.60
2018-12-17T22:21:02.160Z,4.60
2018-12-17T22:23:29.941Z,4.60
2018-12-17T22:25:57.391Z,4.70
2018-12-17T22:28:25.019Z,4.90
2018-12-17T22:30:52.507Z,5.20
2018-12-17T22:33:20.292Z,5.20
2018-12-17T22:35:48.027Z,5.20
2018-12-17T22:38:15.500Z,5.10
2018-12-17T22:40:42.944Z,5.00
2018-12-17T22:43:10.493Z,5.00
2018-12-17T22:45:37.960Z,4.90
2018-12-17T22:48:05.424Z,4.90
2018-12-17T22:50:32.878Z,4.90
2018-12-17T22:53:00.320Z,4.90
2018-12-17T22:55:27.776Z,5.00
2018-12-17T22:57:55.443Z,5.00
2018-12-17T23:00:23.534Z,5.00
2018-12-17T23:02:51.070Z,5.00
2018-12-17T23:05:18.536Z,5.00
2018-12-17T23:07:46.002Z,5.20
2018-12-17T23:10:25.424Z,5.30
2018-12-17T23:13:05.168Z,5.20
2018-12-17T23:15:44.596Z,5.10
2018-12-17T23:18:11.620Z,5.10
2018-12-17T23:20:42.000Z,5.10
2018-12-17T23:23:10.351Z,5.10
2018-12-17T23:25:37.812Z,5.10
2018-12-17T23:28:07.415Z,5.00
2018-12-17T23:30:34.859Z,5.00
2018-12-17T23:33:02.633Z,5.00
2018-12-17T23:35:30.084Z,5.00
2018-12-17T23:37:57.539Z,5.10
2018-12-17T23:40:24.992Z,5.20
2018-12-17T23:42:52.451Z,5.20
2018-12-17T23:45:20.377Z,5.20
2018-12-17T23:47:47.876Z,5.20
2018-12-17T23:50:15.337Z,5.20
2018-12-17T23:52:42.807Z,5.20
2018-12-17T23:55:10.324Z,5.30
2018-12-17T23:57:37.783Z,5.30
